Time;durP1;ratioP1;P1;durP2;ratioP2;P2;SDS_P1;SDS_P2;PMS_P1;PMS_P2;Temp;Humidity;BMP_temperature;BMP_pressure;BME280_temperature;BME280_humidity;BME280_pressure;Samples;Min_cycle;Max_cycle;Signal;HPM_P1;HPM_P2
2021/03/05 00:00:06;;;;;;;13.27;7.37;;;;;;;;;;5025523;28;20255;-70
2021/03/05 00:02:31;;;;;;;10.73;6.83;;;;;;;;;;5030999;28;20263;-69
2021/03/05 00:04:56;;;;;;;13.80;7.43;;;;;;;;;;5030395;28;20865;-69
2021/03/05 00:07:21;;;;;;;14.40;7.40;;;;;;;;;;5026479;28;20526;-68
2021/03/05 00:09:47;;;;;;;13.87;7.20;;;;;;;;;;5032391;28;20196;-69
2021/03/05 00:12:13;;;;;;;12.30;7.27;;;;;;;;;;5023442;28;20224;-68
2021/03/05 00:14:39;;;;;;;11.30;7.20;;;;;;;;;;5030247;28;20197;-68
2021/03/05 00:17:04;;;;;;;15.60;7.70;;;;;;;;;;5029429;28;20208;-68
2021/03/05 00:19:30;;;;;;;12.43;7.53;;;;;;;;;;5035168;28;20206;-68
2021/03/05 00:21:55;;;;;;;14.83;7.80;;;;;;;;;;5029993;28;20295;-67
2021/03/05 00:24:20;;;;;;;15.97;8.43;;;;;;;;;;5036536;28;20524;-68
2021/03/05 00:26:46;;;;;;;16.03;8.63;;;;;;;;;;5027207;28;21636;-68
2021/03/05 00:29:11;;;;;;;15.10;7.90;;;;;;;;;;5035813;28;20707;-69
2021/03/05 00:31:36;;;;;;;16.17;8.17;;;;;;;;;;5026882;28;20173;-68
2021/03/05 00:34:02;;;;;;;18.83;8.10;;;;;;;;;;5038313;28;20237;-68
2021/03/05 00:36:27;;;;;;;16.53;8.87;;;;;;;;;;5036534;28;20272;-68
2021/03/05 00:38:52;;;;;;;17.37;8.60;;;;;;;;;;5028396;28;20223;-68
2021/03/05 00:41:18;;;;;;;14.80;8.80;;;;;;;;;;5036138;28;20633;-68
2021/03/05 00:43:43;;;;;;;16.90;9.03;;;;;;;;;;5027267;28;21327;-68
2021/03/05 00:46:08;;;;;;;17.40;9.00;;;;;;;;;;5033575;28;20200;-68
2021/03/05 00:48:34;;;;;;;17.57;8.73;;;;;;;;;;5025957;28;20623;-68
2021/03/05 00:50:59;;;;;;;17.00;8.67;;;;;;;;;;5031515;28;20193;-68
2021/03/05 00:53:24;;;;;;;21.30;9.27;;;;;;;;;;5025733;28;20195;-68
2021/03/05 00:55:50;;;;;;;16.77;9.23;;;;;;;;;;5030109;28;20185;-68
2021/03/05 00:58:15;;;;;;;15.50;8.27;;;;;;;;;;5028295;28;20292;-68
2021/03/05 01:00:41;;;;;;;16.73;9.17;;;;;;;;;;5030263;28;20189;-68
2021/03/05 01:03:06;;;;;;;17.33;8.83;;;;;;;;;;5030817;28;20201;-68
2021/03/05 01:05:32;;;;;;;17.53;8.73;;;;;;;;;;5023501;28;20213;-68
2021/03/05 01:07:58;;;;;;;18.23;9.10;;;;;;;;;;5035322;28;20181;-68
2021/03/05 01:10:23;;;;;;;21.63;9.43;;;;;;;;;;5025503;28;20601;-68
2021/03/05 01:12:49;;;;;;;19.30;9.03;;;;;;;;;;5032663;28;20221;-68
2021/03/05 01:15:14;;;;;;;20.60;9.83;;;;;;;;;;5020291;28;20197;-68
2021/03/05 01:17:40;;;;;;;15.80;9.03;;;;;;;;;;5032834;28;20200;-68
2021/03/05 01:20:12;;;;;;;16.73;8.80;;;;;;;;;;5023631;28;20609;-68
2021/03/05 01:22:37;;;;;;;20.73;9.53;;;;;;;;;;5032705;28;20201;-68
2021/03/05 01:25:04;;;;;;;18.23;8.87;;;;;;;;;;5025471;28;20201;-69
2021/03/05 01:27:30;;;;;;;21.13;9.67;;;;;;;;;;5035880;28;20235;-68
2021/03/05 01:29:55;;;;;;;19.70;9.77;;;;;;;;;;5022129;28;20618;-68
2021/03/05 01:32:20;;;;;;;17.57;9.50;;;;;;;;;;5033410;28;20185;-68
2021/03/05 01:34:46;;;;;;;18.43;9.67;;;;;;;;;;5033342;28;20283;-68
2021/03/05 01:37:11;;;;;;;21.27;10.60;;;;;;;;;;5027083;28;20715;-68
2021/03/05 01:39:37;;;;;;;19.83;10.43;;;;;;;;;;5032448;28;20232;-68
2021/03/05 01:42:02;;;;;;;25.43;9.93;;;;;;;;;;5026562;28;20579;-68
2021/03/05 01:44:28;;;;;;;19.83;9.00;;;;;;;;;;5035976;28;20258;-68
2021/03/05 01:46:53;;;;;;;20.50;9.37;;;;;;;;;;5037034;28;20185;-68
2021/03/05 01:49:19;;;;;;;19.80;9.03;;;;;;;;;;5035543;28;20192;-68
2021/03/05 01:51:44;;;;;;;19.90;9.57;;;;;;;;;;5024008;28;20740;-68
2021/03/05 01:54:09;;;;;;;21.30;10.23;;;;;;;;;;5034888;28;20948;-68
2021/03/05 01:56:40;;;;;;;20.43;10.00;;;;;;;;;;5023081;28;20633;-68
2021/03/05 01:59:09;;;;;;;21.00;9.77;;;;;;;;;;5034619;28;20262;-68
2021/03/05 02:01:35;;;;;;;27.20;9.70;;;;;;;;;;5025630;28;20208;-68
2021/03/05 02:04:02;;;;;;;21.50;9.80;;;;;;;;;;5034259;28;20333;-68
2021/03/05 02:06:27;;;;;;;21.20;9.83;;;;;;;;;;5031945;28;20213;-68
2021/03/05 02:08:53;;;;;;;21.57;10.40;;;;;;;;;;5026418;28;20213;-68
2021/03/05 02:11:22;;;;;;;22.30;10.20;;;;;;;;;;5032301;28;20232;-68
2021/03/05 02:13:50;;;;;;;20.57;10.13;;;;;;;;;;5026147;28;20537;-68
2021/03/05 02:16:38;;;;;;;23.00;10.27;;;;;;;;;;5034761;28;20228;-68
2021/03/05 02:19:22;;;;;;;22.20;9.97;;;;;;;;;;5028521;28;20205;-68
2021/03/05 02:22:10;;;;;;;23.37;10.33;;;;;;;;;;5034300;28;20231;-68
2021/03/05 02:25:07;;;;;;;20.83;9.83;;;;;;;;;;5023652;28;20186;-68
2021/03/05 02:28:09;;;;;;;17.80;9.20;;;;;;;;;;5035526;28;20587;-68
2021/03/05 02:31:10;;;;;;;24.03;9.57;;;;;;;;;;5031135;28;20302;-68
2021/03/05 02:33:53;;;;;;;18.63;9.27;;;;;;;;;;5043618;28;20196;-68
2021/03/05 02:36:30;;;;;;;23.77;8.93;;;;;;;;;;5031717;28;20173;-68
2021/03/05 02:39:24;;;;;;;17.47;9.50;;;;;;;;;;5023837;28;20282;-68
2021/03/05 02:41:58;;;;;;;20.50;9.20;;;;;;;;;;5036840;28;20238;-68
2021/03/05 02:44:27;;;;;;;21.17;8.57;;;;;;;;;;5024959;28;20189;-68
2021/03/05 02:46:59;;;;;;;22.17;8.60;;;;;;;;;;5033856;28;20665;-68
2021/03/05 02:49:27;;;;;;;18.07;9.17;;;;;;;;;;5023663;28;20261;-68
2021/03/05 02:51:56;;;;;;;16.63;8.60;;;;;;;;;;5033941;28;24294;-68
2021/03/05 02:54:22;;;;;;;18.17;7.70;;;;;;;;;;5023735;28;20267;-68
2021/03/05 02:56:50;;;;;;;19.10;8.63;;;;;;;;;;5033521;28;20342;-68
2021/03/05 02:59:17;;;;;;;18.23;8.63;;;;;;;;;;5034660;28;20212;-68
2021/03/05 03:01:50;;;;;;;19.00;7.57;;;;;;;;;;5027768;28;20190;-68
2021/03/05 03:04:18;;;;;;;22.80;7.90;;;;;;;;;;5033079;28;20204;-68
2021/03/05 03:06:44;;;;;;;20.77;8.47;;;;;;;;;;5025102;28;20190;-68
2021/03/05 03:09:13;;;;;;;16.70;7.43;;;;;;;;;;5031517;28;20200;-68
2021/03/05 03:11:40;;;;;;;18.83;7.93;;;;;;;;;;5023443;28;20212;-68
2021/03/05 03:14:06;;;;;;;18.13;8.13;;;;;;;;;;5030577;28;20557;-68
2021/03/05 03:16:33;;;;;;;15.07;7.53;;;;;;;;;;5027479;28;20193;-68
2021/03/05 03:18:59;;;;;;;17.93;7.70;;;;;;;;;;5031093;28;20306;-68
2021/03/05 03:21:26;;;;;;;18.30;8.30;;;;;;;;;;5023271;28;20193;-68
2021/03/05 03:23:53;;;;;;;13.87;7.40;;;;;;;;;;5034411;28;20303;-68
2021/03/05 03:26:19;;;;;;;14.23;7.53;;;;;;;;;;5023331;28;20289;-68
2021/03/05 03:28:45;;;;;;;14.53;7.23;;;;;;;;;;5027722;28;20277;-68
2021/03/05 03:31:14;;;;;;;15.00;7.67;;;;;;;;;;5021569;28;20181;-68
2021/03/05 03:33:40;;;;;;;14.83;6.60;;;;;;;;;;5032044;28;20186;-68
2021/03/05 03:36:06;;;;;;;14.20;6.60;;;;;;;;;;5031034;28;20235;-67
2021/03/05 03:38:32;;;;;;;16.63;6.77;;;;;;;;;;5021723;28;20206;-67
2021/03/05 03:40:58;;;;;;;14.60;6.97;;;;;;;;;;5031162;28;20183;-67
2021/03/05 03:43:24;;;;;;;17.47;7.10;;;;;;;;;;5024116;28;20185;-67
2021/03/05 03:45:50;;;;;;;15.83;7.03;;;;;;;;;;5033156;28;20186;-67
2021/03/05 03:48:16;;;;;;;19.40;7.10;;;;;;;;;;5022323;28;20178;-68
2021/03/05 03:50:47;;;;;;;16.37;7.60;;;;;;;;;;5032188;28;20596;-68
2021/03/05 03:53:21;;;;;;;16.17;7.60;;;;;;;;;;5023817;28;22327;-67
2021/03/05 03:55:53;;;;;;;15.17;7.50;;;;;;;;;;5031794;28;20620;-68
2021/03/05 03:58:26;;;;;;;20.40;7.10;;;;;;;;;;5023667;28;20677;-67
2021/03/05 04:00:54;;;;;;;12.47;6.07;;;;;;;;;;5031543;28;20629;-68
2021/03/05 04:03:24;;;;;;;13.03;5.50;;;;;;;;;;5023358;28;20846;-68
2021/03/05 04:05:51;;;;;;;10.57;5.80;;;;;;;;;;5032211;28;20193;-67
2021/03/05 04:08:18;;;;;;;12.47;5.90;;;;;;;;;;5021868;28;20189;-68
2021/03/05 04:10:44;;;;;;;10.03;5.03;;;;;;;;;;5031013;28;20189;-68
2021/03/05 04:13:10;;;;;;;12.47;5.60;;;;;;;;;;5031292;28;20648;-67
2021/03/05 04:15:37;;;;;;;11.47;5.70;;;;;;;;;;5025226;28;20897;-68
2021/03/05 04:18:03;;;;;;;12.13;5.23;;;;;;;;;;5030904;28;20288;-68
2021/03/05 04:20:30;;;;;;;16.70;5.60;;;;;;;;;;5024595;28;20297;-67
2021/03/05 04:22:56;;;;;;;12.00;4.93;;;;;;;;;;5028611;28;20189;-67
2021/03/05 04:25:21;;;;;;;14.30;5.03;;;;;;;;;;5026362;28;20227;-68
2021/03/05 04:27:47;;;;;;;13.70;5.93;;;;;;;;;;5027431;28;20280;-68
2021/03/05 04:30:13;;;;;;;11.87;5.53;;;;;;;;;;5020826;28;20205;-67
2021/03/05 04:32:40;;;;;;;12.17;6.07;;;;;;;;;;5032923;28;20189;-68
2021/03/05 04:35:07;;;;;;;15.23;6.43;;;;;;;;;;5023515;28;20468;-68
2021/03/05 04:37:33;;;;;;;12.10;5.70;;;;;;;;;;5030045;28;20276;-68
2021/03/05 04:39:58;;;;;;;12.33;5.40;;;;;;;;;;5026232;28;20340;-68
2021/03/05 04:42:24;;;;;;;12.63;6.10;;;;;;;;;;5032612;28;20609;-67
2021/03/05 04:44:49;;;;;;;11.83;5.40;;;;;;;;;;5034031;28;20197;-68
2021/03/05 04:47:14;;;;;;;13.07;5.70;;;;;;;;;;5022429;28;20189;-68
2021/03/05 04:49:40;;;;;;;15.33;7.10;;;;;;;;;;5031728;28;20181;-68
2021/03/05 04:52:06;;;;;;;20.50;5.73;;;;;;;;;;5024399;28;20197;-68
2021/03/05 04:54:31;;;;;;;10.80;5.37;;;;;;;;;;5033407;28;20177;-68
2021/03/05 04:56:57;;;;;;;12.23;5.27;;;;;;;;;;5021189;28;20249;-68
2021/03/05 04:59:22;;;;;;;11.87;5.43;;;;;;;;;;5032616;28;20201;-68
2021/03/05 05:01:47;;;;;;;13.17;5.77;;;;;;;;;;5022232;28;20204;-68
2021/03/05 05:04:13;;;;;;;13.93;5.40;;;;;;;;;;5030768;28;20209;-67
2021/03/05 05:06:38;;;;;;;16.93;5.83;;;;;;;;;;5022989;28;20189;-68
2021/03/05 05:09:03;;;;;;;12.53;5.67;;;;;;;;;;5028926;28;20193;-67
2021/03/05 05:11:29;;;;;;;14.67;5.80;;;;;;;;;;5024201;28;20208;-68
2021/03/05 05:13:54;;;;;;;12.80;5.50;;;;;;;;;;5028352;28;20197;-67
2021/03/05 05:16:19;;;;;;;13.53;6.00;;;;;;;;;;5029132;28;20194;-67
2021/03/05 05:18:44;;;;;;;14.93;5.70;;;;;;;;;;5019719;28;20232;-68
2021/03/05 05:21:10;;;;;;;11.73;5.60;;;;;;;;;;5029288;28;20319;-67
2021/03/05 05:23:35;;;;;;;13.43;5.43;;;;;;;;;;5020188;28;20255;-67
2021/03/05 05:26:00;;;;;;;13.07;5.53;;;;;;;;;;5029370;28;20189;-67
2021/03/05 05:28:26;;;;;;;13.83;5.07;;;;;;;;;;5023908;28;20715;-67
2021/03/05 05:30:51;;;;;;;13.30;5.30;;;;;;;;;;5030547;28;20284;-67
2021/03/05 05:33:18;;;;;;;18.98;4.63;;;;;;;;;;4361921;28;10001923;-67
2021/03/05 05:35:44;;;;;;;11.43;5.57;;;;;;;;;;5023254;28;21522;-67
2021/03/05 05:38:09;;;;;;;9.80;4.67;;;;;;;;;;5016642;28;20213;-68
2021/03/05 05:40:35;;;;;;;12.10;5.03;;;;;;;;;;5024803;28;20185;-67
2021/03/05 05:43:00;;;;;;;9.73;4.33;;;;;;;;;;5025323;28;20810;-67
2021/03/05 05:45:26;;;;;;;10.50;4.73;;;;;;;;;;5015040;28;20209;-67
2021/03/05 05:47:56;;;;;;;14.00;5.00;;;;;;;;;;5023659;28;20707;-67
2021/03/05 05:50:22;;;;;;;13.83;4.50;;;;;;;;;;5018214;28;20182;-67
2021/03/05 05:52:50;;;;;;;13.10;5.23;;;;;;;;;;5025270;28;20205;-68
2021/03/05 05:55:16;;;;;;;11.60;5.10;;;;;;;;;;5020379;28;20204;-68
2021/03/05 05:57:43;;;;;;;10.50;4.80;;;;;;;;;;5024188;28;20485;-68
2021/03/05 06:00:09;;;;;;;13.43;5.60;;;;;;;;;;5016380;28;20197;-68
2021/03/05 06:02:36;;;;;;;13.83;5.20;;;;;;;;;;5025089;28;20220;-68
2021/03/05 06:05:02;;;;;;;9.80;4.50;;;;;;;;;;5013848;28;20213;-68
2021/03/05 06:07:28;;;;;;;10.50;4.53;;;;;;;;;;5025842;28;21447;-68
2021/03/05 06:09:53;;;;;;;8.73;4.00;;;;;;;;;;5014996;28;20257;-68
2021/03/05 06:12:19;;;;;;;10.17;4.30;;;;;;;;;;5025101;28;20182;-67
2021/03/05 06:14:46;;;;;;;10.93;4.23;;;;;;;;;;5020815;28;20210;-68
2021/03/05 06:17:12;;;;;;;11.10;4.40;;;;;;;;;;5023098;28;20559;-68
2021/03/05 06:19:38;;;;;;;8.00;3.90;;;;;;;;;;5023804;28;20219;-67
2021/03/05 06:22:21;;;;;;;9.13;3.83;;;;;;;;;;5015136;28;20186;-67
2021/03/05 06:24:47;;;;;;;9.07;4.03;;;;;;;;;;5022454;28;20186;-68
2021/03/05 06:27:13;;;;;;;12.73;4.33;;;;;;;;;;5019629;28;20181;-68
2021/03/05 06:29:46;;;;;;;11.63;4.43;;;;;;;;;;5030409;28;20209;-67
2021/03/05 06:32:16;;;;;;;12.07;4.33;;;;;;;;;;5025282;28;20780;-67
2021/03/05 06:34:47;;;;;;;8.80;3.97;;;;;;;;;;5032209;28;20535;-67
2021/03/05 06:37:13;;;;;;;10.03;4.30;;;;;;;;;;5021453;28;20185;-67
2021/03/05 06:39:39;;;;;;;10.50;4.50;;;;;;;;;;5026728;28;20217;-67
2021/03/05 06:42:07;;;;;;;15.97;4.40;;;;;;;;;;5023135;28;20232;-67
2021/03/05 06:44:35;;;;;;;11.13;4.00;;;;;;;;;;5029768;28;20247;-67
2021/03/05 06:47:17;;;;;;;11.83;4.43;;;;;;;;;;5022204;28;20185;-67
2021/03/05 06:49:44;;;;;;;11.97;4.17;;;;;;;;;;4677839;28;9999779;-67
2021/03/05 06:52:10;;;;;;;10.53;4.30;;;;;;;;;;5020406;28;20551;-67
2021/03/05 06:54:40;;;;;;;12.13;3.80;;;;;;;;;;5028365;28;20586;-67
2021/03/05 06:57:06;;;;;;;10.57;4.07;;;;;;;;;;5020038;28;20184;-67
2021/03/05 06:59:39;;;;;;;9.07;4.40;;;;;;;;;;5030596;28;20905;-67
2021/03/05 07:02:14;;;;;;;8.50;3.97;;;;;;;;;;5031746;28;20457;-68
2021/03/05 07:04:42;;;;;;;13.90;4.60;;;;;;;;;;5022139;28;20216;-67
2021/03/05 07:07:09;;;;;;;8.00;4.20;;;;;;;;;;5027684;28;20228;-67
2021/03/05 07:09:36;;;;;;;14.67;4.77;;;;;;;;;;5022022;28;20205;-67
2021/03/05 07:12:13;;;;;;;10.07;4.57;;;;;;;;;;5030314;28;20277;-67
2021/03/05 07:14:44;;;;;;;12.70;4.30;;;;;;;;;;5021426;28;20630;-67
2021/03/05 07:17:10;;;;;;;9.57;4.40;;;;;;;;;;5033995;28;20295;-67
2021/03/05 07:19:38;;;;;;;10.40;4.70;;;;;;;;;;5023729;28;20805;-67
2021/03/05 07:22:05;;;;;;;14.00;4.87;;;;;;;;;;5033262;28;20209;-67
2021/03/05 07:24:32;;;;;;;15.20;4.47;;;;;;;;;;5019195;28;20185;-67
2021/03/05 07:27:00;;;;;;;11.30;4.33;;;;;;;;;;5034716;28;20178;-67
2021/03/05 07:29:27;;;;;;;12.90;4.50;;;;;;;;;;5023779;28;20629;-67
2021/03/05 07:32:02;;;;;;;10.60;4.17;;;;;;;;;;5029529;28;20644;-67
2021/03/05 07:34:30;;;;;;;10.73;4.33;;;;;;;;;;5024753;28;20299;-67
2021/03/05 07:36:58;;;;;;;16.13;4.70;;;;;;;;;;5031015;28;20169;-67
2021/03/05 07:39:30;;;;;;;12.60;3.60;;;;;;;;;;5023257;28;20263;-67
2021/03/05 07:41:55;;;;;;;9.17;4.07;;;;;;;;;;5026093;28;20240;-67
2021/03/05 07:44:22;;;;;;;7.73;3.60;;;;;;;;;;5032631;28;20189;-67
2021/03/05 07:46:48;;;;;;;12.40;3.73;;;;;;;;;;5025671;28;20217;-67
2021/03/05 07:49:14;;;;;;;9.77;3.50;;;;;;;;;;5030516;28;20596;-67
2021/03/05 07:51:40;;;;;;;13.40;3.17;;;;;;;;;;5026064;28;20520;-67
2021/03/05 07:54:06;;;;;;;7.90;3.10;;;;;;;;;;5032594;28;20189;-67
2021/03/05 07:56:50;;;;;;;9.10;2.90;;;;;;;;;;5025184;28;20549;-67
2021/03/05 07:59:37;;;;;;;5.67;2.87;;;;;;;;;;5030632;28;20206;-67
2021/03/05 08:02:03;;;;;;;7.60;3.30;;;;;;;;;;5023080;28;20205;-67
2021/03/05 08:05:00;;;;;;;6.70;2.87;;;;;;;;;;5031235;28;20712;-67
2021/03/05 08:07:28;;;;;;;10.20;2.93;;;;;;;;;;5024442;28;20249;-67
2021/03/05 08:09:53;;;;;;;9.87;2.93;;;;;;;;;;5027437;28;20299;-69
2021/03/05 08:15:05;;;;;;;8.30;2.90;;;;;;;;;;5029135;28;20197;-67
2021/03/05 08:17:31;;;;;;;6.80;2.77;;;;;;;;;;5022095;28;20213;-67
2021/03/05 08:19:57;;;;;;;7.33;2.30;;;;;;;;;;5030272;28;20213;-67
2021/03/05 08:22:22;;;;;;;6.33;2.53;;;;;;;;;;5022617;28;20186;-68
2021/03/05 08:24:48;;;;;;;8.23;2.97;;;;;;;;;;5030161;28;20661;-68
2021/03/05 08:27:18;;;;;;;8.83;2.73;;;;;;;;;;5025052;28;23248;-68
2021/03/05 08:29:56;;;;;;;7.40;2.10;;;;;;;;;;5030960;28;20197;-68
2021/03/05 08:32:33;;;;;;;5.63;2.20;;;;;;;;;;5022637;28;20212;-69
2021/03/05 08:35:12;;;;;;;7.53;2.17;;;;;;;;;;5033214;28;20544;-69
2021/03/05 08:37:45;;;;;;;6.43;1.83;;;;;;;;;;5021141;28;20189;-68
2021/03/05 08:40:11;;;;;;;7.27;2.80;;;;;;;;;;5032654;28;20198;-68
2021/03/05 08:42:43;;;;;;;4.77;1.97;;;;;;;;;;5029149;28;20611;-69
2021/03/05 08:45:10;;;;;;;11.30;2.20;;;;;;;;;;5022632;28;20273;-67
2021/03/05 08:47:36;;;;;;;8.77;1.80;;;;;;;;;;5029979;28;20181;-68
2021/03/05 08:50:04;;;;;;;5.23;1.90;;;;;;;;;;5019461;28;20185;-68
2021/03/05 08:52:29;;;;;;;8.23;1.90;;;;;;;;;;5029990;28;20221;-68
2021/03/05 08:54:56;;;;;;;5.60;1.57;;;;;;;;;;5020572;28;20281;-68
2021/03/05 08:57:22;;;;;;;6.10;1.67;;;;;;;;;;5029676;28;20713;-69
2021/03/05 08:59:53;;;;;;;10.87;1.77;;;;;;;;;;5018811;28;20665;-69
2021/03/05 09:02:18;;;;;;;9.30;1.60;;;;;;;;;;5033801;28;20220;-70
2021/03/05 09:04:43;;;;;;;5.53;1.47;;;;;;;;;;5020622;28;20289;-68
2021/03/05 09:07:13;;;;;;;5.13;1.67;;;;;;;;;;5027754;28;20193;-69
2021/03/05 09:09:39;;;;;;;4.97;1.43;;;;;;;;;;5021914;28;20307;-68
2021/03/05 09:12:15;;;;;;;10.07;1.53;;;;;;;;;;5028248;28;20648;-69
2021/03/05 09:14:47;;;;;;;7.47;1.40;;;;;;;;;;5022716;28;20288;-69
2021/03/05 09:17:14;;;;;;;4.90;1.20;;;;;;;;;;5042811;28;20193;-69
2021/03/05 09:19:42;;;;;;;5.80;1.30;;;;;;;;;;5030199;28;20208;-69
2021/03/05 09:22:16;;;;;;;8.43;1.27;;;;;;;;;;5023173;28;20192;-69
2021/03/05 09:24:56;;;;;;;7.00;2.03;;;;;;;;;;5027477;28;20184;-68
2021/03/05 09:27:24;;;;;;;7.57;0.90;;;;;;;;;;5023652;28;20197;-69
2021/03/05 09:29:50;;;;;;;2.50;1.07;;;;;;;;;;5030750;28;20185;-69
2021/03/05 09:32:16;;;;;;;5.63;1.17;;;;;;;;;;5023543;28;20190;-69
2021/03/05 09:34:55;;;;;;;3.03;0.93;;;;;;;;;;5030000;28;20767;-67
2021/03/05 09:37:25;;;;;;;4.23;1.07;;;;;;;;;;5021880;28;20239;-69
2021/03/05 09:39:52;;;;;;;6.50;2.57;;;;;;;;;;5029719;28;20292;-68
2021/03/05 09:42:38;;;;;;;4.67;0.90;;;;;;;;;;5019189;28;20300;-68
2021/03/05 09:45:04;;;;;;;1.60;1.00;;;;;;;;;;5027593;28;20181;-69
2021/03/05 09:47:45;;;;;;;7.77;1.20;;;;;;;;;;5021152;28;20759;-68
2021/03/05 09:50:20;;;;;;;5.07;0.70;;;;;;;;;;5025582;28;20261;-68
2021/03/05 09:52:46;;;;;;;4.10;0.63;;;;;;;;;;5020617;28;20269;-68
2021/03/05 09:55:26;;;;;;;2.83;0.90;;;;;;;;;;5031590;28;20257;-68
2021/03/05 09:57:51;;;;;;;2.30;0.73;;;;;;;;;;5019063;28;20772;-68
2021/03/05 10:00:31;;;;;;;1.73;0.53;;;;;;;;;;5026380;28;20213;-69
2021/03/05 10:03:05;;;;;;;3.00;0.50;;;;;;;;;;5020129;28;20186;-69
2021/03/05 10:05:32;;;;;;;2.33;0.60;;;;;;;;;;5043094;28;20212;-68
2021/03/05 10:07:58;;;;;;;2.73;0.70;;;;;;;;;;5025367;28;21894;-70
2021/03/05 10:10:24;;;;;;;2.60;0.50;;;;;;;;;;5032586;28;20182;-68
2021/03/05 10:12:53;;;;;;;3.73;0.70;;;;;;;;;;5025202;28;20570;-69
2021/03/05 10:15:18;;;;;;;2.37;0.60;;;;;;;;;;5035392;28;20228;-68
2021/03/05 10:17:44;;;;;;;4.00;0.57;;;;;;;;;;5028612;28;20616;-69
2021/03/05 10:20:10;;;;;;;2.57;0.50;;;;;;;;;;5022464;28;20232;-69
2021/03/05 10:22:36;;;;;;;1.50;0.20;;;;;;;;;;5030883;28;20193;-69
2021/03/05 10:25:01;;;;;;;6.23;0.77;;;;;;;;;;5025189;28;20562;-69
2021/03/05 10:27:26;;;;;;;4.33;0.37;;;;;;;;;;5032154;28;20181;-69
2021/03/05 10:30:02;;;;;;;4.07;0.30;;;;;;;;;;5024407;28;20549;-69
2021/03/05 10:32:31;;;;;;;3.60;0.30;;;;;;;;;;5029402;28;20254;-68
2021/03/05 10:35:05;;;;;;;2.33;0.43;;;;;;;;;;5022841;28;20197;-68
2021/03/05 10:37:31;;;;;;;1.47;0.30;;;;;;;;;;5032153;28;21373;-68
2021/03/05 10:39:59;;;;;;;4.20;0.43;;;;;;;;;;5026703;28;20275;-68
2021/03/05 10:42:24;;;;;;;1.93;0.30;;;;;;;;;;5030169;28;20218;-69
2021/03/05 10:44:51;;;;;;;2.47;0.40;;;;;;;;;;5022995;28;20198;-68
2021/03/05 10:47:18;;;;;;;1.13;0.30;;;;;;;;;;5033689;28;20850;-69
2021/03/05 10:49:45;;;;;;;3.20;0.40;;;;;;;;;;5021952;28;20582;-69
2021/03/05 10:52:12;;;;;;;3.00;0.57;;;;;;;;;;5033087;28;20200;-69
2021/03/05 10:54:43;;;;;;;1.43;0.40;;;;;;;;;;5031350;28;20185;-69
2021/03/05 10:57:12;;;;;;;1.83;0.43;;;;;;;;;;5027242;28;20192;-69
2021/03/05 10:59:38;;;;;;;2.07;0.40;;;;;;;;;;5030502;28;20669;-69
2021/03/05 11:02:04;;;;;;;3.07;0.30;;;;;;;;;;5025404;28;20220;-69
2021/03/05 11:04:30;;;;;;;2.47;0.30;;;;;;;;;;5030023;28;20701;-68
2021/03/05 11:06:55;;;;;;;0.83;0.30;;;;;;;;;;5026542;28;20251;-68
2021/03/05 11:09:27;;;;;;;3.03;0.33;;;;;;;;;;5014822;28;20587;-69
2021/03/05 11:11:53;;;;;;;2.13;0.20;;;;;;;;;;5009726;28;20243;-69
2021/03/05 11:14:18;;;;;;;2.90;0.47;;;;;;;;;;5023363;28;20189;-69
2021/03/05 11:16:44;;;;;;;1.17;0.30;;;;;;;;;;5016168;28;20569;-69
2021/03/05 11:19:10;;;;;;;1.33;0.30;;;;;;;;;;5027346;28;20292;-68
2021/03/05 11:21:35;;;;;;;4.80;0.40;;;;;;;;;;5016537;28;20197;-69
2021/03/05 11:24:02;;;;;;;2.87;0.50;;;;;;;;;;5023462;28;20270;-68
2021/03/05 11:26:27;;;;;;;1.03;0.20;;;;;;;;;;5017621;28;20225;-69
2021/03/05 11:28:54;;;;;;;0.80;0.20;;;;;;;;;;5016638;28;20261;-69
2021/03/05 11:31:20;;;;;;;1.03;0.20;;;;;;;;;;5024851;28;20186;-68
2021/03/05 11:33:45;;;;;;;2.03;0.23;;;;;;;;;;5013310;28;20220;-68
2021/03/05 11:36:12;;;;;;;4.03;0.30;;;;;;;;;;5024416;28;20198;-69
2021/03/05 11:38:42;;;;;;;0.83;0.20;;;;;;;;;;5013515;28;20209;-69
2021/03/05 11:41:08;;;;;;;0.60;0.20;;;;;;;;;;5026005;28;20560;-69
2021/03/05 11:43:35;;;;;;;1.67;0.20;;;;;;;;;;5015380;28;20190;-69
2021/03/05 11:46:00;;;;;;;0.70;0.20;;;;;;;;;;5024155;28;20219;-69
2021/03/05 11:48:26;;;;;;;1.73;0.20;;;;;;;;;;5014747;28;20195;-69
2021/03/05 11:50:51;;;;;;;1.83;0.23;;;;;;;;;;5031920;28;20213;-69
2021/03/05 11:53:17;;;;;;;0.90;0.20;;;;;;;;;;5021696;28;20198;-69
2021/03/05 11:55:42;;;;;;;3.53;0.23;;;;;;;;;;5031575;28;20543;-69
2021/03/05 11:58:08;;;;;;;2.27;0.30;;;;;;;;;;5033037;28;20205;-69
2021/03/05 12:00:33;;;;;;;1.67;0.30;;;;;;;;;;5021486;28;23665;-69
2021/03/05 12:02:59;;;;;;;4.27;0.57;;;;;;;;;;5035109;28;20194;-69
2021/03/05 12:05:24;;;;;;;2.77;0.30;;;;;;;;;;5022160;28;20216;-69
2021/03/05 12:07:50;;;;;;;3.40;0.30;;;;;;;;;;5032347;28;20724;-69
2021/03/05 12:10:15;;;;;;;1.00;0.20;;;;;;;;;;5026367;28;20669;-69
2021/03/05 12:12:41;;;;;;;3.83;0.20;;;;;;;;;;5031188;28;20232;-69
2021/03/05 12:15:07;;;;;;;1.70;0.30;;;;;;;;;;5022682;28;20224;-69
2021/03/05 12:17:32;;;;;;;2.17;0.40;;;;;;;;;;5032774;28;20251;-69
2021/03/05 12:19:57;;;;;;;2.03;0.30;;;;;;;;;;5025578;28;20202;-69
2021/03/05 12:22:23;;;;;;;2.13;0.30;;;;;;;;;;5033315;28;20212;-69
2021/03/05 12:24:49;;;;;;;1.73;0.30;;;;;;;;;;5023113;28;20182;-69
2021/03/05 12:27:14;;;;;;;2.10;0.57;;;;;;;;;;5030405;28;20339;-67
2021/03/05 12:29:40;;;;;;;1.47;0.30;;;;;;;;;;5030536;28;20173;-68
2021/03/05 12:32:05;;;;;;;1.07;0.40;;;;;;;;;;5023409;28;20649;-68
2021/03/05 12:34:31;;;;;;;0.53;0.27;;;;;;;;;;5031439;28;20186;-68
2021/03/05 12:36:56;;;;;;;4.40;0.50;;;;;;;;;;5022184;28;20197;-68
2021/03/05 12:39:22;;;;;;;3.27;0.50;;;;;;;;;;5031744;28;20209;-68
2021/03/05 12:41:47;;;;;;;2.73;0.37;;;;;;;;;;5026380;28;20316;-68
2021/03/05 12:44:12;;;;;;;2.33;0.50;;;;;;;;;;5034076;28;20192;-68
2021/03/05 12:46:38;;;;;;;0.97;0.33;;;;;;;;;;5021274;28;20312;-68
2021/03/05 12:49:03;;;;;;;2.37;0.20;;;;;;;;;;5033212;28;20185;-68
2021/03/05 12:51:28;;;;;;;1.03;0.20;;;;;;;;;;5023905;28;20833;-68
2021/03/05 12:53:54;;;;;;;4.73;0.40;;;;;;;;;;5030212;28;20232;-68
2021/03/05 12:56:19;;;;;;;2.40;0.60;;;;;;;;;;5028646;28;20212;-68
2021/03/05 12:58:44;;;;;;;2.53;0.70;;;;;;;;;;5022546;28;20205;-68
2021/03/05 13:01:10;;;;;;;2.27;0.47;;;;;;;;;;5031977;28;20204;-68
2021/03/05 13:03:36;;;;;;;4.57;0.47;;;;;;;;;;5019918;28;20204;-68
2021/03/05 13:06:01;;;;;;;4.50;0.60;;;;;;;;;;5031189;28;20185;-68
2021/03/05 13:08:27;;;;;;;2.17;0.40;;;;;;;;;;5022993;28;20186;-68
2021/03/05 13:10:52;;;;;;;1.17;0.50;;;;;;;;;;5028140;28;20189;-69
2021/03/05 13:13:18;;;;;;;4.87;0.50;;;;;;;;;;5021685;28;20281;-70
2021/03/05 13:15:43;;;;;;;1.17;0.37;;;;;;;;;;5032379;28;20193;-68
2021/03/05 13:18:09;;;;;;;3.20;0.40;;;;;;;;;;5025193;28;20200;-69
2021/03/05 13:20:34;;;;;;;2.10;0.40;;;;;;;;;;5031405;28;20196;-68
2021/03/05 13:22:59;;;;;;;2.03;0.33;;;;;;;;;;5024294;28;20189;-69
2021/03/05 13:25:34;;;;;;;0.97;0.30;;;;;;;;;;5031977;28;20280;-68
2021/03/05 13:28:01;;;;;;;3.53;0.47;;;;;;;;;;5030323;28;20212;-69
2021/03/05 13:30:27;;;;;;;2.17;0.40;;;;;;;;;;5030793;28;20580;-69
2021/03/05 13:32:53;;;;;;;2.63;0.40;;;;;;;;;;5030363;28;20197;-69
2021/03/05 13:35:18;;;;;;;1.53;0.40;;;;;;;;;;5024024;28;20545;-69
2021/03/05 13:37:44;;;;;;;1.07;0.30;;;;;;;;;;5027043;28;20635;-68
2021/03/05 13:40:10;;;;;;;2.17;0.40;;;;;;;;;;5027137;28;20727;-69
2021/03/05 13:42:35;;;;;;;0.70;0.40;;;;;;;;;;5028187;28;20269;-69
2021/03/05 13:45:03;;;;;;;2.13;0.40;;;;;;;;;;5021312;28;20218;-69
2021/03/05 13:47:28;;;;;;;3.57;0.63;;;;;;;;;;5028402;28;20651;-69
2021/03/05 13:49:53;;;;;;;3.80;0.47;;;;;;;;;;5022444;28;20200;-69
2021/03/05 13:52:19;;;;;;;4.07;0.60;;;;;;;;;;5028282;28;20193;-69
2021/03/05 13:54:44;;;;;;;0.87;0.30;;;;;;;;;;5020080;28;22681;-69
2021/03/05 13:57:09;;;;;;;1.40;0.30;;;;;;;;;;5031849;28;20185;-68
2021/03/05 13:59:35;;;;;;;5.00;0.23;;;;;;;;;;5029191;28;20371;-68
2021/03/05 14:02:00;;;;;;;1.17;0.30;;;;;;;;;;5019471;28;20189;-69
2021/03/05 14:04:25;;;;;;;2.87;0.50;;;;;;;;;;4333943;28;10021593;-68
2021/03/05 14:06:51;;;;;;;1.73;0.30;;;;;;;;;;5018342;28;20196;-68
2021/03/05 14:09:16;;;;;;;3.47;0.43;;;;;;;;;;5026090;28;20190;-68
2021/03/05 14:11:42;;;;;;;3.03;0.53;;;;;;;;;;5015610;28;20217;-68
2021/03/05 14:14:07;;;;;;;3.53;0.50;;;;;;;;;;5027898;28;20218;-69
2021/03/05 14:16:33;;;;;;;1.63;0.20;;;;;;;;;;5020634;28;20212;-69
2021/03/05 14:18:59;;;;;;;5.37;0.97;;;;;;;;;;5026213;28;20692;-68
2021/03/05 14:21:24;;;;;;;1.30;0.43;;;;;;;;;;5015823;28;20623;-68
2021/03/05 14:23:49;;;;;;;1.53;0.50;;;;;;;;;;5025357;28;20186;-68
2021/03/05 14:26:15;;;;;;;2.40;0.60;;;;;;;;;;5019268;28;20236;-69
2021/03/05 14:28:40;;;;;;;3.07;0.50;;;;;;;;;;5027070;28;20654;-69
2021/03/05 14:31:05;;;;;;;1.93;0.80;;;;;;;;;;5026857;28;20186;-68
2021/03/05 14:33:31;;;;;;;1.23;0.40;;;;;;;;;;5018036;28;20285;-68
2021/03/05 14:35:56;;;;;;;3.67;0.67;;;;;;;;;;5031119;28;20684;-68
2021/03/05 14:38:21;;;;;;;1.83;0.50;;;;;;;;;;5019532;28;20189;-68
2021/03/05 14:40:47;;;;;;;2.30;0.63;;;;;;;;;;5027958;28;20264;-68